Time;durP1;ratioP1;P1;durP2;ratioP2;P2;SDS_P1;SDS_P2;PMS_P1;PMS_P2;Temp;Humidity;BMP_temperature;BMP_pressure;BME280_temperature;BME280_humidity;BME280_pressure;Samples;Min_cycle;Max_cycle;Signal;HPM_P1;HPM_P2
2023/04/28 00:00:32;;;;;;;44.23;13.97;;;;;;;3.94;76.66;101183.26;4980146;57;1138997;-76
2023/04/28 00:05:40;;;;;;;31.67;11.43;;;;;;;3.82;77.00;101187.18;5046544;57;1138744;-77
2023/04/28 00:10:45;;;;;;;62.40;18.33;;;;;;;3.74;76.88;101188.41;5062450;56;1138846;-78
2023/04/28 00:15:55;;;;;;;80.17;23.10;;;;;;;3.70;77.15;101188.97;5062722;56;1138805;-77
2023/04/28 00:21:00;;;;;;;87.85;21.37;;;;;;;3.65;77.63;101187.47;5063206;56;1138876;-78
2023/04/28 00:26:06;;;;;;;77.47;20.17;;;;;;;3.51;77.64;101184.89;5082913;56;1139236;-75
2023/04/28 00:31:14;;;;;;;53.60;17.57;;;;;;;3.47;77.86;101186.39;5025999;57;1138891;-77
2023/04/28 00:36:20;;;;;;;49.80;14.93;;;;;;;3.41;78.38;101185.30;4975983;57;1138891;-78
2023/04/28 00:41:26;;;;;;;51.60;14.38;;;;;;;3.27;78.87;101181.90;5014214;57;1138632;-78
2023/04/28 00:46:33;;;;;;;37.93;12.13;;;;;;;3.16;79.14;101190.59;5062433;56;1138650;-76
2023/04/28 00:51:39;;;;;;;42.77;9.93;;;;;;;3.07;79.54;101188.30;5062337;56;1138711;-76
2023/04/28 00:56:45;;;;;;;54.93;14.07;;;;;;;3.05;79.84;101187.52;5057877;56;1136637;-77
2023/04/28 01:01:50;;;;;;;62.73;19.03;;;;;;;3.07;80.01;101183.92;4979358;57;1197759;-75
2023/04/28 01:06:57;;;;;;;75.40;21.10;;;;;;;3.07;80.49;101176.53;4980086;57;1138796;-78
2023/04/28 01:12:03;;;;;;;62.95;14.83;;;;;;;3.03;80.28;101176.27;4980359;57;1138882;-77
2023/04/28 01:17:13;;;;;;;56.50;15.00;;;;;;;2.90;80.24;101182.84;4989877;57;1138784;-77
2023/04/28 01:22:19;;;;;;;118.00;37.27;;;;;;;2.93;80.42;101187.48;4980031;58;1138628;-76
2023/04/28 01:27:25;;;;;;;68.40;16.83;;;;;;;3.01;80.91;101177.62;4977901;58;1140736;-78
2023/04/28 01:32:30;;;;;;;49.80;14.90;;;;;;;2.94;80.66;101182.66;4995131;57;1138648;-76
2023/04/28 01:37:36;;;;;;;55.87;15.23;;;;;;;2.75;80.55;101181.14;4975611;57;1138703;-78
2023/04/28 01:42:42;;;;;;;50.07;14.43;;;;;;;2.67;81.15;101184.94;5016617;57;1138824;-76
2023/04/28 01:47:47;;;;;;;50.13;15.37;;;;;;;2.55;81.41;101177.08;5082173;56;1138754;-78
2023/04/28 01:52:53;;;;;;;48.83;13.13;;;;;;;2.46;81.74;101177.37;5062654;56;1138779;-75
2023/04/28 01:57:59;;;;;;;34.43;10.97;;;;;;;2.35;81.94;101172.52;5018223;56;1138931;-76
2023/04/28 02:03:06;;;;;;;31.77;11.07;;;;;;;2.29;82.20;101174.02;5004533;56;1138960;-76
2023/04/28 02:08:13;;;;;;;46.47;13.60;;;;;;;2.31;82.34;101175.27;5039906;57;1138775;-75
2023/04/28 02:13:18;;;;;;;29.83;11.70;;;;;;;2.26;82.20;101179.81;4980461;56;1138895;-77
2023/04/28 02:18:24;;;;;;;29.70;10.43;;;;;;;2.22;81.93;101177.74;5000233;56;1138740;-76
2023/04/28 02:23:29;;;;;;;20.30;8.53;;;;;;;2.29;83.01;101176.62;5010009;56;1138743;-78
2023/04/28 02:28:35;;;;;;;24.83;9.97;;;;;;;2.38;83.72;101177.64;5060495;56;1196376;-76
2023/04/28 02:33:42;;;;;;;17.07;6.97;;;;;;;2.43;83.67;101176.19;5083016;56;1136802;-76
2023/04/28 02:38:48;;;;;;;20.20;8.80;;;;;;;2.38;83.63;101171.11;5062492;56;1136736;-75
2023/04/28 02:43:54;;;;;;;13.40;5.63;;;;;;;2.22;83.25;101173.83;5004887;57;1136743;-77
2023/04/28 02:49:00;;;;;;;18.16;7.98;;;;;;;2.05;83.36;101168.30;4981163;57;1136793;-76
2023/04/28 02:54:06;;;;;;;12.90;6.00;;;;;;;1.91;83.89;101180.48;5008072;57;1136605;-76
2023/04/28 02:59:12;;;;;;;14.75;7.28;;;;;;;1.91;84.91;101176.56;5063893;56;1154276;-76
2023/04/28 03:04:18;;;;;;;15.57;7.97;;;;;;;1.90;84.88;101183.13;5096141;56;1206871;-77
2023/04/28 03:09:23;;;;;;;22.43;8.33;;;;;;;1.88;85.17;101183.63;5117329;56;1136952;-76
2023/04/28 03:14:29;;;;;;;20.03;7.30;;;;;;;1.81;85.71;101175.61;5097454;56;1136869;-76
2023/04/28 03:19:35;;;;;;;14.83;6.47;;;;;;;1.73;85.86;101174.52;5068365;56;1136669;-75
2023/04/28 03:24:41;;;;;;;20.67;8.23;;;;;;;1.72;86.32;101175.42;5033432;57;1136627;-76
2023/04/28 03:29:47;;;;;;;23.80;6.87;;;;;;;1.68;85.97;101174.66;5013429;57;1146809;-76
2023/04/28 03:34:53;;;;;;;29.20;13.60;;;;;;;1.66;86.70;101179.54;5011387;57;1219186;-75
2023/04/28 03:39:59;;;;;;;21.33;8.28;;;;;;;1.64;87.32;101178.73;5012943;57;1195967;-74
2023/04/28 03:45:05;;;;;;;31.80;12.37;;;;;;;1.54;87.07;101167.70;5113088;56;1136821;-75
2023/04/28 03:50:11;;;;;;;37.50;10.77;;;;;;;1.49;87.88;101176.58;5097064;56;1138705;-76
2023/04/28 03:55:17;;;;;;;27.03;10.90;;;;;;;1.46;88.02;101180.58;5096164;56;1139146;-77
2023/04/28 04:00:23;;;;;;;106.57;33.70;;;;;;;1.47;88.33;101177.07;5002223;57;1138680;-75
2023/04/28 04:05:29;;;;;;;129.17;41.07;;;;;;;1.49;88.26;101177.44;5023949;57;1141201;-75
2023/04/28 04:10:35;;;;;;;65.53;25.00;;;;;;;1.52;89.09;101176.49;5062381;56;1140852;-77
2023/04/28 04:15:41;;;;;;;88.00;33.10;;;;;;;1.50;89.55;101173.93;5054374;56;1138838;-76
2023/04/28 04:20:48;;;;;;;76.93;37.50;;;;;;;1.59;90.18;101180.61;4975778;57;1138775;-76
2023/04/28 04:25:54;;;;;;;69.20;20.57;;;;;;;1.63;91.09;101180.48;4976066;57;1138816;-76
2023/04/28 04:31:01;;;;;;;45.93;18.57;;;;;;;1.61;91.93;101178.81;4976189;57;1138905;-75
2023/04/28 04:36:08;;;;;;;40.28;18.00;;;;;;;1.65;92.29;101170.86;5055855;56;1138778;-75
2023/04/28 04:41:14;;;;;;;39.63;19.50;;;;;;;1.72;93.13;101171.06;5019964;57;1138684;-76
2023/04/28 04:46:20;;;;;;;63.70;20.30;;;;;;;1.81;93.34;101175.61;5021211;57;1139138;-76
2023/04/28 04:51:26;;;;;;;62.27;25.63;;;;;;;2.01;94.25;101185.80;5064014;56;1138836;-70
2023/04/28 04:56:32;;;;;;;196.90;75.83;;;;;;;2.20;94.59;101174.33;4956160;58;1138674;-70
2023/04/28 05:01:40;;;;;;;50.23;24.90;;;;;;;2.37;95.40;101171.16;5003710;56;1189798;-69
2023/04/28 05:06:46;;;;;;;33.27;17.50;;;;;;;2.50;95.91;101174.20;5169995;55;1229498;-71
2023/04/28 05:11:52;;;;;;;37.87;16.90;;;;;;;2.58;95.29;101173.52;5010241;57;1245576;-69
2023/04/28 05:16:57;;;;;;;42.07;16.17;;;;;;;2.66;95.59;101171.47;5148830;55;1254569;-72
2023/04/28 05:22:05;;;;;;;32.87;16.03;;;;;;;2.78;96.43;101172.34;5064806;55;1250172;-68
2023/04/28 05:27:13;;;;;;;39.03;16.40;;;;;;;3.11;97.49;101176.37;5099190;56;1250997;-72
2023/04/28 05:32:18;;;;;;;32.23;15.07;;;;;;;3.47;98.66;101169.40;5009990;57;1256395;-73
2023/04/28 05:37:24;;;;;;;37.08;16.25;;;;;;;3.93;99.26;101172.39;5102790;55;1247298;-68
2023/04/28 05:42:31;;;;;;;39.92;16.82;;;;;;;4.31;99.61;101164.73;5086190;55;1138799;-69
2023/04/28 05:47:37;;;;;;;31.53;16.17;;;;;;;4.76;99.85;101168.03;5066596;56;1138797;-71
2023/04/28 05:52:42;;;;;;;45.37;21.37;;;;;;;5.18;99.53;101165.77;4931931;58;1138995;-69
2023/04/28 05:57:48;;;;;;;34.77;18.33;;;;;;;5.55;98.71;101162.30;5086656;56;1138689;-68
2023/04/28 06:02:55;;;;;;;47.90;16.50;;;;;;;5.93;98.53;101160.08;5069521;56;1138932;-70
2023/04/28 06:08:02;;;;;;;39.23;15.27;;;;;;;6.26;97.26;101164.61;5076231;56;1139019;-72
2023/04/28 06:13:09;;;;;;;24.30;11.17;;;;;;;6.63;96.52;101153.94;5100217;56;1138730;-75
2023/04/28 06:18:15;;;;;;;12.90;6.80;;;;;;;6.98;94.94;101149.95;5066410;56;1140888;-73
2023/04/28 06:23:20;;;;;;;9.53;4.30;;;;;;;7.35;92.49;101148.81;5064815;56;1252417;-76
2023/04/28 06:28:27;;;;;;;14.13;4.58;;;;;;;7.62;84.38;101147.80;5086937;56;1134649;-75
2023/04/28 06:33:33;;;;;;;9.67;4.10;;;;;;;7.83;77.53;101150.53;5066093;56;1176181;-73
2023/04/28 06:38:38;;;;;;;8.47;2.93;;;;;;;7.99;74.38;101146.57;5067386;56;1134566;-78
2023/04/28 06:43:44;;;;;;;21.30;3.33;;;;;;;8.21;75.76;101141.78;5087669;56;1134593;-74
2023/04/28 06:48:51;;;;;;;7.37;4.03;;;;;;;8.51;74.19;101138.33;5100309;55;1136742;-75
2023/04/28 06:53:57;;;;;;;13.40;3.27;;;;;;;8.73;71.68;101130.34;5014622;55;1134486;-74
2023/04/28 06:59:03;;;;;;;62.38;27.65;;;;;;;8.91;70.23;101134.98;5141491;55;1136774;-75
2023/04/28 07:04:08;;;;;;;22.70;4.15;;;;;;;9.15;71.34;101133.97;5109335;55;1139070;-74
2023/04/28 07:09:15;;;;;;;7.77;4.90;;;;;;;9.40;69.64;101130.17;5153162;55;1136726;-74
2023/04/28 07:14:20;;;;;;;6.33;4.47;;;;;;;9.60;70.33;101125.42;5153227;55;1134813;-75
2023/04/28 07:19:26;;;;;;;6.10;2.12;;;;;;;9.75;67.11;101116.52;5033548;56;1134544;-74
2023/04/28 07:24:31;;;;;;;4.70;2.50;;;;;;;9.96;63.19;101113.78;5152723;56;1136639;-76
2023/04/28 07:29:38;;;;;;;3.27;2.13;;;;;;;10.13;60.08;101103.42;5013799;56;1136632;-75
2023/04/28 07:34:43;;;;;;;5.37;1.93;;;;;;;10.25;61.16;101101.30;5170923;56;1138739;-73
2023/04/28 07:39:49;;;;;;;4.00;1.87;;;;;;;10.45;63.55;101094.69;5013341;57;1138802;-78
2023/04/28 07:44:57;;;;;;;7.80;2.07;;;;;;;10.63;59.54;101088.15;5148024;55;1254535;-77
2023/04/28 07:50:05;;;;;;;2.45;1.60;;;;;;;10.78;58.17;101086.23;5016817;56;1138777;-77
2023/04/28 07:55:10;;;;;;;17.77;2.58;;;;;;;10.81;55.16;101084.23;5032915;57;1138714;-76
2023/04/28 08:00:17;;;;;;;10.07;3.30;;;;;;;11.01;57.86;101072.23;5013046;57;1140857;-75
2023/04/28 08:05:22;;;;;;;7.13;2.60;;;;;;;11.19;55.27;101066.96;5152153;55;1140762;-76
2023/04/28 08:10:29;;;;;;;6.37;2.83;;;;;;;11.31;54.32;101068.35;5171622;55;1138711;-73
2023/04/28 08:15:34;;;;;;;4.93;2.10;;;;;;;11.40;49.63;101067.71;5152552;55;1138690;-74
2023/04/28 08:20:40;;;;;;;4.10;1.90;;;;;;;11.42;50.09;101056.05;5152404;55;1138795;-77
2023/04/28 08:25:46;;;;;;;41.30;20.73;;;;;;;11.50;52.37;101043.56;5028487;57;1138790;-75
2023/04/28 08:30:53;;;;;;;4.10;2.30;;;;;;;11.57;48.07;101045.66;5151687;55;1142948;-78
2023/04/28 08:35:59;;;;;;;15.30;7.87;;;;;;;11.69;50.00;101041.73;5117252;55;1138768;-76
2023/04/28 08:41:05;;;;;;;3.52;2.30;;;;;;;11.84;47.63;101039.31;5067539;55;1140869;-76
2023/04/28 08:46:11;;;;;;;12.05;2.47;;;;;;;12.00;49.42;101025.27;5032945;57;1138982;-76
2023/04/28 08:51:22;;;;;;;12.03;3.43;;;;;;;12.24;49.89;101015.92;5059120;56;1140904;-77
2023/04/28 08:56:32;;;;;;;2.83;2.20;;;;;;;12.42;51.01;101011.86;5071847;56;1140935;-76
2023/04/28 09:01:38;;;;;;;10.40;3.10;;;;;;;12.61;47.00;101018.76;5116668;56;1138615;-76
2023/04/28 09:06:44;;;;;;;7.57;3.10;;;;;;;12.63;47.32;101012.85;5091081;56;1140900;-76
2023/04/28 09:11:58;;;;;;;9.37;3.73;;;;;;;12.59;49.38;100998.61;5183294;55;1138642;-76
2023/04/28 09:17:13;;;;;;;9.60;3.12;;;;;;;12.77;46.83;100994.52;5183526;55;1138805;-78
2023/04/28 09:22:18;;;;;;;12.47;3.23;;;;;;;12.72;45.69;100987.87;5204077;55;1138869;-75
2023/04/28 09:27:28;;;;;;;10.07;4.23;;;;;;;12.57;49.46;100977.98;5154738;55;1141377;-77
2023/04/28 09:32:35;;;;;;;5.10;3.30;;;;;;;12.84;47.31;100981.09;5182843;55;1140848;-77
2023/04/28 09:37:42;;;;;;;8.93;4.23;;;;;;;12.96;49.60;100972.17;5203713;55;1138788;-75
2023/04/28 09:42:47;;;;;;;17.57;6.27;;;;;;;13.16;50.61;100969.73;5182978;55;1138813;-75
2023/04/28 09:47:53;;;;;;;11.67;5.87;;;;;;;13.28;46.30;100966.95;5182797;55;1140885;-75
2023/04/28 09:52:59;;;;;;;17.45;9.18;;;;;;;13.40;50.09;100956.28;5180762;55;1141122;-76
2023/04/28 09:58:07;;;;;;;9.38;6.67;;;;;;;13.54;47.46;100947.52;5187639;55;1140798;-75
2023/04/28 10:03:15;;;;;;;18.37;4.92;;;;;;;13.70;47.83;100943.94;5183515;55;1138799;-75
2023/04/28 10:08:22;;;;;;;8.17;4.83;;;;;;;13.80;48.85;100936.02;5182879;55;1140954;-77
2023/04/28 10:13:29;;;;;;;12.80;5.83;;;;;;;13.83;47.38;100923.80;5203584;55;1138749;-76
2023/04/28 10:18:37;;;;;;;15.83;6.00;;;;;;;13.97;50.36;100926.62;5183283;55;1140904;-76
2023/04/28 10:24:15;;;;;;;7.30;4.80;;;;;;;13.98;45.75;100920.33;5183570;55;1140800;-77
2023/04/28 10:29:28;;;;;;;6.53;4.50;;;;;;;14.05;48.56;100916.19;5183941;55;1138979;-74
2023/04/28 10:34:33;;;;;;;13.60;5.60;;;;;;;14.24;45.50;100904.77;5204050;55;1138971;-73
2023/04/28 10:39:39;;;;;;;9.23;5.23;;;;;;;14.27;44.70;100895.20;5183321;55;1141064;-76
2023/04/28 10:44:44;;;;;;;17.00;7.60;;;;;;;14.34;44.51;100912.33;5183679;55;1138868;-75
2023/04/28 10:50:06;;;;;;;15.13;6.03;;;;;;;14.40;46.39;100896.69;5188438;55;1140745;-77
2023/04/28 10:55:38;;;;;;;13.28;6.50;;;;;;;14.49;46.75;100881.75;5149375;55;1140897;-76
2023/04/28 11:00:53;;;;;;;12.47;6.83;;;;;;;14.53;46.17;100878.30;5097347;56;1140773;-77
2023/04/28 11:06:36;;;;;;;21.80;6.63;;;;;;;14.68;48.09;100868.47;5097048;55;1199412;-79
2023/04/28 11:11:38;;;;;;;15.40;6.70;;;;;;;14.93;47.37;100859.14;5104242;55;1140896;-79
2023/04/28 11:17:01;;;;;;;17.03;6.87;;;;;;;15.00;44.94;100858.91;5067983;56;1140790;-81
2023/04/28 11:22:16;;;;;;;7.45;5.33;;;;;;;15.01;46.23;100854.43;5067628;56;1140976;-82
2023/04/28 11:27:26;;;;;;;11.57;6.37;;;;;;;15.20;49.77;100845.61;5067561;56;1138778;-80
2023/04/28 11:32:35;;;;;;;23.87;8.47;;;;;;;15.37;45.99;100844.41;5087084;56;1140762;-75
2023/04/28 11:37:41;;;;;;;12.63;7.87;;;;;;;15.48;46.47;100842.91;5067049;56;1140809;-80
2023/04/28 11:42:49;;;;;;;20.83;9.70;;;;;;;15.59;46.02;100844.60;5081592;56;1140920;-78
2023/04/28 11:47:55;;;;;;;11.23;6.73;;;;;;;15.56;45.06;100837.41;5080823;55;1140901;-80
2023/04/28 11:53:01;;;;;;;12.43;6.63;;;;;;;15.59;46.92;100842.43;5170872;55;1140844;-77
2023/04/28 11:58:26;;;;;;;14.18;7.12;;;;;;;15.54;47.39;100834.85;5126656;55;1140760;-77
2023/04/28 12:03:32;;;;;;;12.18;6.33;;;;;;;15.73;44.98;100825.52;5024385;56;1141040;-80
2023/04/28 12:08:38;;;;;;;11.13;5.97;;;;;;;15.80;49.69;100821.27;5172680;55;1140890;-81
2023/04/28 12:13:44;;;;;;;9.20;7.30;;;;;;;15.90;47.04;100819.89;5096220;56;1141197;-80
2023/04/28 12:19:01;;;;;;;15.03;6.60;;;;;;;16.04;47.50;100818.08;5106837;56;1138795;-75
2023/04/28 12:24:19;;;;;;;8.95;5.90;;;;;;;16.19;47.50;100807.78;5117162;56;1140910;-78
2023/04/28 12:29:41;;;;;;;16.30;7.70;;;;;;;16.31;45.61;100804.42;5136628;56;1138724;-81
2023/04/28 12:34:49;;;;;;;13.37;7.30;;;;;;;16.33;45.28;100795.28;5103766;56;1141106;-79
2023/04/28 12:39:55;;;;;;;12.10;7.57;;;;;;;16.20;43.62;100793.42;4985410;57;1140960;-81
2023/04/28 12:45:00;;;;;;;10.77;7.40;;;;;;;15.93;43.96;100786.25;5045998;56;1262285;-79
2023/04/28 12:50:07;;;;;;;14.18;7.54;;;;;;;16.00;43.49;100782.03;5014977;57;1140832;-78
2023/04/28 12:55:13;;;;;;;13.70;7.87;;;;;;;16.07;42.26;100776.92;5057291;56;1140890;-79
2023/04/28 13:00:22;;;;;;;16.93;7.57;;;;;;;16.12;44.50;100763.98;5143599;55;1140722;-79
2023/04/28 13:05:26;;;;;;;16.53;6.93;;;;;;;16.02;42.30;100769.39;4996390;57;1140867;-76
2023/04/28 13:10:32;;;;;;;16.03;7.90;;;;;;;16.08;45.04;100757.26;5014454;57;1141061;-72
2023/04/28 13:15:38;;;;;;;16.37;7.80;;;;;;;16.19;44.81;100752.55;5156734;55;1140998;-70
2023/04/28 13:20:43;;;;;;;16.07;8.53;;;;;;;16.28;44.50;100748.16;5118880;55;1140740;-70
2023/04/28 13:25:50;;;;;;;14.17;7.83;;;;;;;16.26;44.40;100738.63;5102317;55;1140840;-72
2023/04/28 13:30:55;;;;;;;32.40;8.50;;;;;;;16.16;43.03;100736.86;5096256;56;1140801;-75
2023/04/28 13:36:01;;;;;;;17.87;8.10;;;;;;;16.17;43.54;100725.70;4998310;56;1141266;-73
2023/04/28 13:41:06;;;;;;;20.44;8.86;;;;;;;16.31;46.58;100711.84;5180483;55;1140743;-74
2023/04/28 13:46:12;;;;;;;13.00;8.48;;;;;;;16.54;45.67;100697.52;5173969;55;1140787;-71
2023/04/28 13:51:18;;;;;;;14.20;7.90;;;;;;;16.72;45.03;100693.05;5096694;55;1141023;-73
2023/04/28 13:56:24;;;;;;;22.20;11.00;;;;;;;16.71;42.68;100685.19;5124250;55;1140906;-69
2023/04/28 14:01:29;;;;;;;15.47;8.00;;;;;;;16.69;44.15;100681.83;5160681;55;1142795;-70
2023/04/28 14:06:36;;;;;;;13.07;7.50;;;;;;;16.71;44.79;100675.84;5125253;55;1140769;-79
2023/04/28 14:11:41;;;;;;;9.33;6.77;;;;;;;16.64;42.75;100670.30;5029700;56;1141081;-79
2023/04/28 14:16:48;;;;;;;14.17;7.27;;;;;;;16.54;44.37;100666.33;5112269;56;1139233;-79
2023/04/28 14:21:54;;;;;;;12.37;7.10;;;;;;;16.65;43.35;100661.79;5031586;56;1140864;-78
2023/04/28 14:27:00;;;;;;;14.42;7.04;;;;;;;16.72;44.84;100654.82;5031694;57;1140843;-71
2023/04/28 14:32:06;;;;;;;11.93;6.30;;;;;;;16.94;44.12;100645.47;5086481;56;1140835;-79
2023/04/28 14:37:11;;;;;;;12.53;7.00;;;;;;;17.08;43.64;100640.39;5090984;56;1140893;-81
2023/04/28 14:42:18;;;;;;;13.77;7.93;;;;;;;17.16;41.94;100636.91;5028281;57;1140875;-81
2023/04/28 14:47:25;;;;;;;17.27;8.27;;;;;;;17.11;42.43;100632.56;5048348;57;1140916;-80
2023/04/28 14:52:32;;;;;;;14.93;6.80;;;;;;;17.10;42.36;100622.36;5028360;57;1140805;-79
2023/04/28 14:57:38;;;;;;;14.53;8.30;;;;;;;17.13;43.09;100619.34;5020282;57;1140976;-78
2023/04/28 15:02:43;;;;;;;23.07;12.43;;;;;;;17.13;43.23;100610.49;5033118;57;1140807;-79
2023/04/28 15:07:49;;;;;;;21.03;8.30;;;;;;;17.09;42.96;100603.31;5096962;55;1142991;-77
2023/04/28 15:12:54;;;;;;;15.10;8.63;;;;;;;17.07;41.46;100597.29;5156984;55;1140751;-77
2023/04/28 15:18:00;;;;;;;21.40;12.10;;;;;;;16.93;42.66;100597.88;5183446;55;1140891;-77
2023/04/28 15:23:06;;;;;;;21.90;10.90;;;;;;;16.84;42.99;100590.30;5203676;55;1143123;-79
2023/04/28 15:28:12;;;;;;;20.87;11.93;;;;;;;16.90;44.41;100584.83;5183066;55;1143104;-79
2023/04/28 15:33:17;;;;;;;18.42;9.18;;;;;;;16.96;43.90;100583.38;5111841;55;1142982;-80
2023/04/28 15:38:23;;;;;;;16.45;12.20;;;;;;;17.00;43.22;100580.70;5117668;55;1140798;-79
2023/04/28 15:43:29;;;;;;;49.70;23.55;;;;;;;16.92;44.01;100568.15;5097377;55;1143213;-77
2023/04/28 15:48:34;;;;;;;16.60;9.47;;;;;;;16.86;43.90;100567.44;5096948;55;1143154;-79
2023/04/28 15:53:40;;;;;;;18.70;11.60;;;;;;;16.75;43.56;100563.70;5116791;56;1140909;-78
2023/04/28 15:58:46;;;;;;;22.63;9.87;;;;;;;16.65;44.49;100556.30;5096868;55;1142866;-79
2023/04/28 16:03:52;;;;;;;17.16;8.80;;;;;;;16.59;44.44;100552.39;5097144;55;1140807;-79
2023/04/28 16:08:57;;;;;;;38.50;25.40;;;;;;;16.57;45.14;100555.70;5097364;56;1140854;-77
2023/04/28 16:14:03;;;;;;;36.17;23.77;;;;;;;16.61;46.13;100546.89;5116220;56;1143002;-78
2023/04/28 16:19:08;;;;;;;43.43;24.80;;;;;;;16.58;46.48;100545.37;5096571;55;1142798;-78
2023/04/28 16:24:14;;;;;;;22.42;14.45;;;;;;;16.62;47.33;100538.73;5142194;55;1142979;-77
2023/04/28 16:29:21;;;;;;;18.70;10.25;;;;;;;16.65;48.11;100534.41;5203301;55;1143061;-77
2023/04/28 16:34:26;;;;;;;20.20;8.88;;;;;;;16.65;47.48;100532.27;5158612;55;1142929;-78
2023/04/28 16:39:33;;;;;;;35.63;15.87;;;;;;;16.62;48.47;100529.88;5096272;56;1140922;-78
2023/04/28 16:44:38;;;;;;;40.57;17.20;;;;;;;16.60;48.21;100527.36;5129907;55;1142851;-78
2023/04/28 16:49:44;;;;;;;41.83;21.83;;;;;;;16.56;49.13;100519.32;5096160;55;1143176;-79
2023/04/28 16:54:50;;;;;;;30.67;17.60;;;;;;;16.46;48.67;100517.27;5096201;56;1142915;-80
2023/04/28 16:59:55;;;;;;;21.77;11.10;;;;;;;16.33;48.67;100516.84;5166139;55;1143011;-79
2023/04/28 17:05:01;;;;;;;30.07;12.87;;;;;;;16.13;49.29;100520.19;5164177;55;1143204;-78
2023/04/28 17:10:07;;;;;;;14.93;9.53;;;;;;;15.93;49.52;100518.67;5123924;55;1142967;-76
2023/04/28 17:15:16;;;;;;;23.10;9.35;;;;;;;15.77;50.36;100517.53;5182851;55;1140829;-77
2023/04/28 17:20:22;;;;;;;22.82;11.60;;;;;;;15.65;50.90;100516.09;5202757;55;1140870;-80
2023/04/28 17:25:28;;;;;;;43.95;17.23;;;;;;;15.56;51.54;100510.84;5182415;55;1142890;-78
2023/04/28 17:30:38;;;;;;;40.65;18.30;;;;;;;15.43;51.99;100509.32;5182272;55;1142828;-79
2023/04/28 17:35:43;;;;;;;95.03;54.90;;;;;;;15.32;52.55;100500.70;5183990;55;1142997;-77
2023/04/28 17:40:49;;;;;;;129.07;65.93;;;;;;;15.23;53.12;100506.45;5094803;56;1142863;-78
2023/04/28 17:45:55;;;;;;;65.53;28.77;;;;;;;15.13;53.48;100497.66;5128387;55;1145193;-77
2023/04/28 17:51:01;;;;;;;48.83;22.40;;;;;;;15.07;53.93;100499.11;5149680;55;1143143;-77
2023/04/28 17:56:07;;;;;;;79.10;33.17;;;;;;;15.00;53.86;100504.66;5201827;55;1142825;-77
2023/04/28 18:01:14;;;;;;;92.43;38.27;;;;;;;14.93;54.22;100501.42;5140347;55;1142937;-80
2023/04/28 18:06:21;;;;;;;94.05;35.63;;;;;;;14.87;54.58;100506.00;5141370;55;1143071;-80
2023/04/28 18:11:26;;;;;;;130.27;43.87;;;;;;;14.80;54.57;100495.11;5194420;55;1142923;-76
2023/04/28 18:16:32;;;;;;;126.42;42.75;;;;;;;14.78;54.86;100497.91;5125613;55;1145335;-80
2023/04/28 18:21:38;;;;;;;96.47;36.50;;;;;;;14.76;54.73;100504.37;5055759;56;1145060;-79
2023/04/28 18:26:43;;;;;;;96.53;34.50;;;;;;;14.69;54.66;100500.59;4999777;57;1143146;-80
2023/04/28 18:31:50;;;;;;;46.40;22.20;;;;;;;14.61;54.88;100502.67;5098955;55;1142984;-78
2023/04/28 18:36:55;;;;;;;40.07;22.40;;;;;;;14.53;54.72;100499.03;5107696;55;1142786;-78
2023/04/28 18:42:05;;;;;;;27.90;13.07;;;;;;;14.46;54.79;100491.30;5099967;55;1143051;-79
2023/04/28 18:47:11;;;;;;;27.13;13.03;;;;;;;14.39;54.66;100500.30;5191296;55;1143130;-79
2023/04/28 18:52:17;;;;;;;18.60;10.00;;;;;;;14.30;54.61;100497.19;5108261;55;1143022;-77
2023/04/28 18:57:22;;;;;;;30.57;13.40;;;;;;;14.26;54.68;100493.97;5136607;55;1143041;-77
2023/04/28 19:02:28;;;;;;;22.77;12.65;;;;;;;14.19;54.58;100496.88;5038808;57;1143019;-78
2023/04/28 19:07:34;;;;;;;23.77;12.23;;;;;;;14.13;54.71;100502.75;4935739;57;1143112;-79
2023/04/28 19:12:40;;;;;;;28.10;12.73;;;;;;;14.08;54.88;100507.16;4998636;57;1142937;-77
2023/04/28 19:17:45;;;;;;;32.20;13.80;;;;;;;14.04;55.49;100498.29;5194981;55;1143058;-77
2023/04/28 19:22:52;;;;;;;22.67;11.43;;;;;;;13.97;55.85;100503.81;5116737;56;1142932;-79
2023/04/28 19:27:57;;;;;;;25.20;12.30;;;;;;;13.89;55.86;100495.72;5011201;57;1143066;-79
2023/04/28 19:33:03;;;;;;;18.42;12.05;;;;;;;13.83;56.12;100495.77;5062189;56;1142952;-79
2023/04/28 19:38:10;;;;;;;24.70;13.37;;;;;;;13.78;56.13;100498.00;5082153;56;1142862;-77
2023/04/28 19:43:16;;;;;;;29.03;12.07;;;;;;;13.71;56.58;100488.92;4966562;56;1142979;-77
2023/04/28 19:48:22;;;;;;;23.83;11.43;;;;;;;13.64;56.86;100493.95;4947743;57;1143160;-79
2023/04/28 19:53:28;;;;;;;21.83;10.87;;;;;;;13.58;56.96;100487.87;5071064;56;1143461;-79
2023/04/28 19:58:33;;;;;;;24.30;11.95;;;;;;;13.50;57.29;100482.89;4978968;57;1143087;-80
2023/04/28 20:03:40;;;;;;;23.80;13.73;;;;;;;13.43;57.52;100477.30;4967505;57;1142961;-78
2023/04/28 20:08:45;;;;;;;37.87;11.53;;;;;;;13.37;57.89;100483.16;4996180;56;1142911;-77
2023/04/28 20:13:51;;;;;;;18.50;11.30;;;;;;;13.29;58.12;100479.84;4966869;57;1143034;-78
2023/04/28 20:18:57;;;;;;;19.63;11.37;;;;;;;13.21;58.54;100467.75;4993914;57;1142901;-79
2023/04/28 20:24:03;;;;;;;21.50;11.60;;;;;;;13.14;58.80;100477.20;4932166;58;1143055;-77
2023/04/28 20:29:08;;;;;;;23.53;12.20;;;;;;;13.08;59.00;100464.97;5025466;56;1143036;-77
2023/04/28 20:34:14;;;;;;;23.90;12.87;;;;;;;13.03;59.27;100474.66;5052502;56;1143109;-79
2023/04/28 20:39:20;;;;;;;29.00;12.53;;;;;;;12.97;59.22;100460.14;5074453;56;1143010;-78
2023/04/28 20:44:26;;;;;;;27.40;12.17;;;;;;;12.95;59.63;100470.05;5012298;57;1143128;-78
2023/04/28 20:49:31;;;;;;;27.13;13.03;;;;;;;12.89;59.79;100466.59;4975469;57;1142908;-80
2023/04/28 20:54:38;;;;;;;34.10;16.30;;;;;;;12.85;60.04;100459.02;5091555;56;1142941;-80
2023/04/28 20:59:44;;;;;;;29.10;16.27;;;;;;;12.81;60.44;100453.66;5202964;55;1143111;-77
2023/04/28 21:04:50;;;;;;;33.20;14.07;;;;;;;12.76;60.72;100450.55;5182807;55;1143178;-79
2023/04/28 21:09:56;;;;;;;30.57;15.63;;;;;;;12.68;60.83;100449.88;5032374;56;1143140;-81
2023/04/28 21:15:02;;;;;;;34.53;14.98;;;;;;;12.62;61.15;100443.81;5033235;56;1143073;-79
2023/04/28 21:20:08;;;;;;;27.47;15.40;;;;;;;12.58;61.40;100448.53;4974171;57;1142914;-79
2023/04/28 21:25:14;;;;;;;37.03;17.07;;;;;;;12.52;61.52;100441.61;4960527;57;1142940;-78
2023/04/28 21:30:21;;;;;;;37.67;16.07;;;;;;;12.47;61.85;100438.51;4969562;56;1197484;-79
2023/04/28 21:35:27;;;;;;;24.75;13.50;;;;;;;12.41;62.07;100433.72;5101952;56;1142986;-79
2023/04/28 21:40:33;;;;;;;40.40;14.30;;;;;;;12.31;62.54;100423.92;5081990;56;1143042;-78
2023/04/28 21:45:38;;;;;;;18.80;12.53;;;;;;;12.27;62.65;100426.96;5081717;56;1142934;-78
2023/04/28 21:50:44;;;;;;;25.20;13.77;;;;;;;12.21;63.19;100428.34;5101813;56;1142928;-79
2023/04/28 21:55:49;;;;;;;26.60;13.70;;;;;;;12.18;63.15;100419.81;5082752;56;1142840;-78
2023/04/28 22:00:55;;;;;;;25.97;13.73;;;;;;;12.13;63.62;100424.66;5081749;56;1143002;-77
2023/04/28 22:06:01;;;;;;;25.65;13.05;;;;;;;12.07;63.83;100410.62;5030940;56;1142955;-78
2023/04/28 22:11:06;;;;;;;32.83;14.23;;;;;;;12.00;64.20;100412.09;5012078;57;1143150;-77
2023/04/28 22:16:12;;;;;;;30.25;14.65;;;;;;;11.94;64.16;100416.09;4944399;57;1142952;-77
2023/04/28 22:21:18;;;;;;;21.23;13.80;;;;;;;11.88;64.53;100401.58;4998227;57;1143150;-76
2023/04/28 22:26:25;;;;;;;26.55;14.83;;;;;;;11.84;64.76;100396.17;5018959;57;1142999;-78
2023/04/28 22:31:31;;;;;;;28.07;14.03;;;;;;;11.78;65.30;100391.86;4999328;57;1142848;-78
2023/04/28 22:36:37;;;;;;;24.55;14.03;;;;;;;11.72;65.53;100387.06;5034632;56;1142877;-76
2023/04/28 22:41:43;;;;;;;34.60;16.10;;;;;;;11.62;66.01;100386.50;5062644;56;1142829;-78
2023/04/28 22:46:49;;;;;;;32.80;15.32;;;;;;;11.56;66.42;100383.55;5042815;56;1142868;-78
2023/04/28 22:51:55;;;;;;;25.63;14.17;;;;;;;11.52;66.22;100377.66;5101965;56;1143103;-76